<?xml version="1.0" encoding="UTF-8" standalone="no" ?>
<gpx xmlns="http://www.topografix.com/GPX/1/1" xmlns:xsi="http://www.w3.org/2001/XMLSchema-instance" xsi:schemaLocation="http://www.topografix.com/GPX/1/1 http://www.topografix.com/GPX/1/1/gpx.xsd" version="1.1" creator="VisuGPX - https://www.visugpx.com">
  <metadata>
    <name>trail plan du chouet</name>
  </metadata>
  <trk>
    <name><![CDATA[trail plan du chouet]]></name>
    <extensions>
      <line xmlns="http://www.topografix.com/GPX/gpx_style/0/2">
        <color>0000FF</color>
        <width>4</width>
      </line>
    </extensions>
    <trkseg>
      <trkpt lat="45.76579" lon="6.30901">
        <ele>514.8</ele>
        <time>2024-03-24T18:10:13.000Z</time>
      </trkpt>
      <trkpt lat="45.76579" lon="6.30902">
        <ele>514.74</ele>
        <time>2024-03-24T18:10:13.000Z</time>
      </trkpt>
      <trkpt lat="45.76565" lon="6.30905">
        <ele>514.61</ele>
        <time>2024-03-24T18:10:13.005Z</time>
      </trkpt>
      <trkpt lat="45.76553" lon="6.30905">
        <ele>514.53</ele>
        <time>2024-03-24T18:10:13.014Z</time>
      </trkpt>
      <trkpt lat="45.76536" lon="6.3089">
        <ele>514.44</ele>
        <time>2024-03-24T18:10:13.030Z</time>
      </trkpt>
      <trkpt lat="45.76537" lon="6.30888">
        <ele>514.41</ele>
        <time>2024-03-24T18:10:13.046Z</time>
      </trkpt>
      <trkpt lat="45.76546" lon="6.30864">
        <ele>514.37</ele>
        <time>2024-03-24T18:10:13.069Z</time>
      </trkpt>
      <trkpt lat="45.76577" lon="6.30727">
        <ele>514.9</ele>
        <time>2024-03-24T18:10:13.125Z</time>
      </trkpt>
      <trkpt lat="45.76576" lon="6.30699">
        <ele>515.27</ele>
        <time>2024-03-24T18:10:13.188Z</time>
      </trkpt>
      <trkpt lat="45.76577" lon="6.30679">
        <ele>515.63</ele>
        <time>2024-03-24T18:10:13.255Z</time>
      </trkpt>
      <trkpt lat="45.76571" lon="6.30648">
        <ele>515.94</ele>
        <time>2024-03-24T18:10:13.330Z</time>
      </trkpt>
      <trkpt lat="45.76569" lon="6.30646">
        <ele>516.32</ele>
        <time>2024-03-24T18:10:13.406Z</time>
      </trkpt>
      <trkpt lat="45.76571" lon="6.30648">
        <ele>516.75</ele>
        <time>2024-03-24T18:10:13.483Z</time>
      </trkpt>
      <trkpt lat="45.76578" lon="6.30641">
        <ele>517.25</ele>
        <time>2024-03-24T18:10:13.562Z</time>
      </trkpt>
      <trkpt lat="45.76589" lon="6.30632">
        <ele>517.82</ele>
        <time>2024-03-24T18:10:13.646Z</time>
      </trkpt>
      <trkpt lat="45.76605" lon="6.30624">
        <ele>518.51</ele>
        <time>2024-03-24T18:10:13.735Z</time>
      </trkpt>
      <trkpt lat="45.76611" lon="6.30622">
        <ele>519.24</ele>
        <time>2024-03-24T18:10:13.826Z</time>
      </trkpt>
      <trkpt lat="45.76614" lon="6.30613">
        <ele>520.06</ele>
        <time>2024-03-24T18:10:13.920Z</time>
      </trkpt>
      <trkpt lat="45.76618" lon="6.30601">
        <ele>520.99</ele>
        <time>2024-03-24T18:10:14.017Z</time>
      </trkpt>
      <trkpt lat="45.76612" lon="6.30577">
        <ele>522</ele>
        <time>2024-03-24T18:10:14.120Z</time>
      </trkpt>
      <trkpt lat="45.76612" lon="6.30572">
        <ele>523</ele>
        <time>2024-03-24T18:10:14.224Z</time>
      </trkpt>
      <trkpt lat="45.76613" lon="6.30567">
        <ele>524.08</ele>
        <time>2024-03-24T18:10:14.329Z</time>
      </trkpt>
      <trkpt lat="45.76618" lon="6.3056">
        <ele>525.27</ele>
        <time>2024-03-24T18:10:14.436Z</time>
      </trkpt>
      <trkpt lat="45.76628" lon="6.30553">
        <ele>526.61</ele>
        <time>2024-03-24T18:10:14.547Z</time>
      </trkpt>
      <trkpt lat="45.76633" lon="6.3055">
        <ele>527.95</ele>
        <time>2024-03-24T18:10:14.660Z</time>
      </trkpt>
      <trkpt lat="45.76665" lon="6.30537">
        <ele>529.73</ele>
        <time>2024-03-24T18:10:14.784Z</time>
      </trkpt>
      <trkpt lat="45.76667" lon="6.30536">
        <ele>531.23</ele>
        <time>2024-03-24T18:10:14.909Z</time>
      </trkpt>
      <trkpt lat="45.76685" lon="6.30498">
        <ele>533.11</ele>
        <time>2024-03-24T18:10:15.045Z</time>
      </trkpt>
      <trkpt lat="45.76689" lon="6.30492">
        <ele>534.74</ele>
        <time>2024-03-24T18:10:15.182Z</time>
      </trkpt>
      <trkpt lat="45.76695" lon="6.30488">
        <ele>536.33</ele>
        <time>2024-03-24T18:10:15.322Z</time>
      </trkpt>
      <trkpt lat="45.76701" lon="6.30483">
        <ele>537.89</ele>
        <time>2024-03-24T18:10:15.464Z</time>
      </trkpt>
      <trkpt lat="45.76703" lon="6.30481">
        <ele>539.39</ele>
        <time>2024-03-24T18:10:15.607Z</time>
      </trkpt>
      <trkpt lat="45.7673" lon="6.3048">
        <ele>540.96</ele>
        <time>2024-03-24T18:10:15.759Z</time>
      </trkpt>
      <trkpt lat="45.76745" lon="6.30469">
        <ele>542.66</ele>
        <time>2024-03-24T18:10:15.916Z</time>
      </trkpt>
      <trkpt lat="45.76754" lon="6.30466">
        <ele>544.3</ele>
        <time>2024-03-24T18:10:16.076Z</time>
      </trkpt>
      <trkpt lat="45.76773" lon="6.30467">
        <ele>546.03</ele>
        <time>2024-03-24T18:10:16.243Z</time>
      </trkpt>
      <trkpt lat="45.76779" lon="6.30462">
        <ele>547.71</ele>
        <time>2024-03-24T18:10:16.412Z</time>
      </trkpt>
      <trkpt lat="45.76779" lon="6.30458">
        <ele>549.36</ele>
        <time>2024-03-24T18:10:16.582Z</time>
      </trkpt>
      <trkpt lat="45.76779" lon="6.30455">
        <ele>551.03</ele>
        <time>2024-03-24T18:10:16.753Z</time>
      </trkpt>
      <trkpt lat="45.76775" lon="6.30443">
        <ele>552.76</ele>
        <time>2024-03-24T18:10:16.927Z</time>
      </trkpt>
      <trkpt lat="45.76773" lon="6.30422">
        <ele>554.65</ele>
        <time>2024-03-24T18:10:17.106Z</time>
      </trkpt>
      <trkpt lat="45.76775" lon="6.30414">
        <ele>556.54</ele>
        <time>2024-03-24T18:10:17.287Z</time>
      </trkpt>
      <trkpt lat="45.76778" lon="6.30408">
        <ele>558.47</ele>
        <time>2024-03-24T18:10:17.469Z</time>
      </trkpt>
      <trkpt lat="45.76786" lon="6.30403">
        <ele>560.58</ele>
        <time>2024-03-24T18:10:17.654Z</time>
      </trkpt>
      <trkpt lat="45.76795" lon="6.30404">
        <ele>562.72</ele>
        <time>2024-03-24T18:10:17.842Z</time>
      </trkpt>
      <trkpt lat="45.7682" lon="6.30411">
        <ele>565.12</ele>
        <time>2024-03-24T18:10:18.039Z</time>
      </trkpt>
      <trkpt lat="45.7685" lon="6.30424">
        <ele>567.66</ele>
        <time>2024-03-24T18:10:18.246Z</time>
      </trkpt>
      <trkpt lat="45.76862" lon="6.30431">
        <ele>570.18</ele>
        <time>2024-03-24T18:10:18.458Z</time>
      </trkpt>
      <trkpt lat="45.76873" lon="6.30436">
        <ele>572.78</ele>
        <time>2024-03-24T18:10:18.673Z</time>
      </trkpt>
      <trkpt lat="45.76877" lon="6.3043">
        <ele>575.48</ele>
        <time>2024-03-24T18:10:18.890Z</time>
      </trkpt>
      <trkpt lat="45.76876" lon="6.30428">
        <ele>578.23</ele>
        <time>2024-03-24T18:10:19.108Z</time>
      </trkpt>
      <trkpt lat="45.76876" lon="6.30422">
        <ele>581.1</ele>
        <time>2024-03-24T18:10:19.327Z</time>
      </trkpt>
      <trkpt lat="45.76871" lon="6.3041">
        <ele>584.09</ele>
        <time>2024-03-24T18:10:19.549Z</time>
      </trkpt>
      <trkpt lat="45.76829" lon="6.30332">
        <ele>587.48</ele>
        <time>2024-03-24T18:10:19.794Z</time>
      </trkpt>
      <trkpt lat="45.76825" lon="6.30319">
        <ele>590.93</ele>
        <time>2024-03-24T18:10:20.043Z</time>
      </trkpt>
      <trkpt lat="45.76825" lon="6.30287">
        <ele>594.71</ele>
        <time>2024-03-24T18:10:20.299Z</time>
      </trkpt>
      <trkpt lat="45.76824" lon="6.30269">
        <ele>598.52</ele>
        <time>2024-03-24T18:10:20.559Z</time>
      </trkpt>
      <trkpt lat="45.76836" lon="6.30227">
        <ele>602.7</ele>
        <time>2024-03-24T18:10:20.830Z</time>
      </trkpt>
      <trkpt lat="45.76838" lon="6.30211">
        <ele>606.69</ele>
        <time>2024-03-24T18:10:21.105Z</time>
      </trkpt>
      <trkpt lat="45.76808" lon="6.30164">
        <ele>610.73</ele>
        <time>2024-03-24T18:10:21.394Z</time>
      </trkpt>
      <trkpt lat="45.76825" lon="6.30151">
        <ele>615.03</ele>
        <time>2024-03-24T18:10:21.690Z</time>
      </trkpt>
      <trkpt lat="45.76836" lon="6.30133">
        <ele>619.49</ele>
        <time>2024-03-24T18:10:21.991Z</time>
      </trkpt>
      <trkpt lat="45.7684" lon="6.30101">
        <ele>624.18</ele>
        <time>2024-03-24T18:10:22.300Z</time>
      </trkpt>
      <trkpt lat="45.76852" lon="6.30106">
        <ele>628.6</ele>
        <time>2024-03-24T18:10:22.613Z</time>
      </trkpt>
      <trkpt lat="45.76873" lon="6.30111">
        <ele>633.11</ele>
        <time>2024-03-24T18:10:22.933Z</time>
      </trkpt>
      <trkpt lat="45.76896" lon="6.30122">
        <ele>637.75</ele>
        <time>2024-03-24T18:10:23.261Z</time>
      </trkpt>
      <trkpt lat="45.769" lon="6.30125">
        <ele>642.29</ele>
        <time>2024-03-24T18:10:23.590Z</time>
      </trkpt>
      <trkpt lat="45.76936" lon="6.30157">
        <ele>647.1</ele>
        <time>2024-03-24T18:10:23.933Z</time>
      </trkpt>
      <trkpt lat="45.76979" lon="6.30193">
        <ele>652.04</ele>
        <time>2024-03-24T18:10:24.293Z</time>
      </trkpt>
      <trkpt lat="45.77008" lon="6.30208">
        <ele>656.91</ele>
        <time>2024-03-24T18:10:24.664Z</time>
      </trkpt>
      <trkpt lat="45.7704" lon="6.30222">
        <ele>662.17</ele>
        <time>2024-03-24T18:10:25.046Z</time>
      </trkpt>
      <trkpt lat="45.77068" lon="6.30229">
        <ele>667.15</ele>
        <time>2024-03-24T18:10:25.437Z</time>
      </trkpt>
      <trkpt lat="45.77097" lon="6.30233">
        <ele>671.78</ele>
        <time>2024-03-24T18:10:25.838Z</time>
      </trkpt>
      <trkpt lat="45.77121" lon="6.30223">
        <ele>676.42</ele>
        <time>2024-03-24T18:10:26.247Z</time>
      </trkpt>
      <trkpt lat="45.77138" lon="6.30212">
        <ele>680.88</ele>
        <time>2024-03-24T18:10:26.662Z</time>
      </trkpt>
      <trkpt lat="45.77148" lon="6.30208">
        <ele>685.07</ele>
        <time>2024-03-24T18:10:27.081Z</time>
      </trkpt>
      <trkpt lat="45.77164" lon="6.30216">
        <ele>688.94</ele>
        <time>2024-03-24T18:10:27.505Z</time>
      </trkpt>
      <trkpt lat="45.77168" lon="6.30215">
        <ele>692.57</ele>
        <time>2024-03-24T18:10:27.931Z</time>
      </trkpt>
      <trkpt lat="45.77215" lon="6.30244">
        <ele>696.4</ele>
        <time>2024-03-24T18:10:28.374Z</time>
      </trkpt>
      <trkpt lat="45.77218" lon="6.30244">
        <ele>699.6</ele>
        <time>2024-03-24T18:10:28.818Z</time>
      </trkpt>
      <trkpt lat="45.7722" lon="6.3024">
        <ele>702.58</ele>
        <time>2024-03-24T18:10:29.263Z</time>
      </trkpt>
      <trkpt lat="45.77218" lon="6.30233">
        <ele>705.29</ele>
        <time>2024-03-24T18:10:29.710Z</time>
      </trkpt>
      <trkpt lat="45.77209" lon="6.30222">
        <ele>707.7</ele>
        <time>2024-03-24T18:10:30.161Z</time>
      </trkpt>
      <trkpt lat="45.77209" lon="6.30213">
        <ele>709.99</ele>
        <time>2024-03-24T18:10:30.614Z</time>
      </trkpt>
      <trkpt lat="45.77213" lon="6.3021">
        <ele>712.09</ele>
        <time>2024-03-24T18:10:31.068Z</time>
      </trkpt>
      <trkpt lat="45.77222" lon="6.30213">
        <ele>713.98</ele>
        <time>2024-03-24T18:10:31.525Z</time>
      </trkpt>
      <trkpt lat="45.7723" lon="6.30218">
        <ele>715.65</ele>
        <time>2024-03-24T18:10:31.985Z</time>
      </trkpt>
      <trkpt lat="45.77236" lon="6.30221">
        <ele>717.12</ele>
        <time>2024-03-24T18:10:32.447Z</time>
      </trkpt>
      <trkpt lat="45.77239" lon="6.30219">
        <ele>718.42</ele>
        <time>2024-03-24T18:10:32.910Z</time>
      </trkpt>
      <trkpt lat="45.77239" lon="6.30214">
        <ele>719.57</ele>
        <time>2024-03-24T18:10:33.374Z</time>
      </trkpt>
      <trkpt lat="45.77233" lon="6.30201">
        <ele>720.63</ele>
        <time>2024-03-24T18:10:33.842Z</time>
      </trkpt>
      <trkpt lat="45.77233" lon="6.30193">
        <ele>721.54</ele>
        <time>2024-03-24T18:10:34.312Z</time>
      </trkpt>
      <trkpt lat="45.77236" lon="6.30187">
        <ele>722.31</ele>
        <time>2024-03-24T18:10:34.784Z</time>
      </trkpt>
      <trkpt lat="45.77237" lon="6.30184">
        <ele>722.94</ele>
        <time>2024-03-24T18:10:35.257Z</time>
      </trkpt>
      <trkpt lat="45.77259" lon="6.30168">
        <ele>723.67</ele>
        <time>2024-03-24T18:10:35.738Z</time>
      </trkpt>
      <trkpt lat="45.77291" lon="6.30167">
        <ele>724.35</ele>
        <time>2024-03-24T18:10:36.229Z</time>
      </trkpt>
      <trkpt lat="45.77296" lon="6.30164">
        <ele>724.79</ele>
        <time>2024-03-24T18:10:36.722Z</time>
      </trkpt>
      <trkpt lat="45.77315" lon="6.30175">
        <ele>725.05</ele>
        <time>2024-03-24T18:10:37.222Z</time>
      </trkpt>
      <trkpt lat="45.77328" lon="6.3018">
        <ele>725.19</ele>
        <time>2024-03-24T18:10:37.727Z</time>
      </trkpt>
      <trkpt lat="45.77341" lon="6.3018">
        <ele>725.34</ele>
        <time>2024-03-24T18:10:38.236Z</time>
      </trkpt>
      <trkpt lat="45.77351" lon="6.30176">
        <ele>725.5</ele>
        <time>2024-03-24T18:10:38.748Z</time>
      </trkpt>
      <trkpt lat="45.7736" lon="6.30175">
        <ele>725.62</ele>
        <time>2024-03-24T18:10:39.263Z</time>
      </trkpt>
      <trkpt lat="45.7737" lon="6.30178">
        <ele>725.68</ele>
        <time>2024-03-24T18:10:39.782Z</time>
      </trkpt>
      <trkpt lat="45.77406" lon="6.30204">
        <ele>725.8</ele>
        <time>2024-03-24T18:10:40.314Z</time>
      </trkpt>
      <trkpt lat="45.77409" lon="6.30201">
        <ele>726.03</ele>
        <time>2024-03-24T18:10:40.847Z</time>
      </trkpt>
      <trkpt lat="45.77413" lon="6.30199">
        <ele>726.33</ele>
        <time>2024-03-24T18:10:41.382Z</time>
      </trkpt>
      <trkpt lat="45.77416" lon="6.30199">
        <ele>726.63</ele>
        <time>2024-03-24T18:10:41.918Z</time>
      </trkpt>
      <trkpt lat="45.7742" lon="6.30202">
        <ele>726.99</ele>
        <time>2024-03-24T18:10:42.455Z</time>
      </trkpt>
      <trkpt lat="45.77424" lon="6.30209">
        <ele>727.39</ele>
        <time>2024-03-24T18:10:42.994Z</time>
      </trkpt>
      <trkpt lat="45.77433" lon="6.30232">
        <ele>727.82</ele>
        <time>2024-03-24T18:10:43.540Z</time>
      </trkpt>
      <trkpt lat="45.77438" lon="6.30239">
        <ele>728.45</ele>
        <time>2024-03-24T18:10:44.088Z</time>
      </trkpt>
      <trkpt lat="45.77443" lon="6.30241">
        <ele>729.25</ele>
        <time>2024-03-24T18:10:44.638Z</time>
      </trkpt>
      <trkpt lat="45.77448" lon="6.30239">
        <ele>730.22</ele>
        <time>2024-03-24T18:10:45.189Z</time>
      </trkpt>
      <trkpt lat="45.77454" lon="6.30235">
        <ele>731.39</ele>
        <time>2024-03-24T18:10:45.743Z</time>
      </trkpt>
      <trkpt lat="45.77462" lon="6.30235">
        <ele>732.75</ele>
        <time>2024-03-24T18:10:46.299Z</time>
      </trkpt>
      <trkpt lat="45.77482" lon="6.30247">
        <ele>734.4</ele>
        <time>2024-03-24T18:10:46.862Z</time>
      </trkpt>
      <trkpt lat="45.77488" lon="6.30245">
        <ele>736.06</ele>
        <time>2024-03-24T18:10:47.427Z</time>
      </trkpt>
      <trkpt lat="45.7749" lon="6.30241">
        <ele>737.83</ele>
        <time>2024-03-24T18:10:47.994Z</time>
      </trkpt>
      <trkpt lat="45.7749" lon="6.30234">
        <ele>739.75</ele>
        <time>2024-03-24T18:10:48.562Z</time>
      </trkpt>
      <trkpt lat="45.77487" lon="6.30224">
        <ele>741.79</ele>
        <time>2024-03-24T18:10:49.133Z</time>
      </trkpt>
      <trkpt lat="45.77474" lon="6.30196">
        <ele>744.02</ele>
        <time>2024-03-24T18:10:49.712Z</time>
      </trkpt>
      <trkpt lat="45.77469" lon="6.30177">
        <ele>746.43</ele>
        <time>2024-03-24T18:10:50.295Z</time>
      </trkpt>
      <trkpt lat="45.77465" lon="6.30152">
        <ele>749.04</ele>
        <time>2024-03-24T18:10:50.884Z</time>
      </trkpt>
      <trkpt lat="45.77461" lon="6.30128">
        <ele>751.88</ele>
        <time>2024-03-24T18:10:51.479Z</time>
      </trkpt>
      <trkpt lat="45.77448" lon="6.30093">
        <ele>754.82</ele>
        <time>2024-03-24T18:10:52.083Z</time>
      </trkpt>
      <trkpt lat="45.77418" lon="6.30058">
        <ele>757.95</ele>
        <time>2024-03-24T18:10:52.700Z</time>
      </trkpt>
      <trkpt lat="45.774" lon="6.30042">
        <ele>761.31</ele>
        <time>2024-03-24T18:10:53.324Z</time>
      </trkpt>
      <trkpt lat="45.77377" lon="6.30032">
        <ele>764.77</ele>
        <time>2024-03-24T18:10:53.956Z</time>
      </trkpt>
      <trkpt lat="45.77364" lon="6.30019">
        <ele>768.52</ele>
        <time>2024-03-24T18:10:54.593Z</time>
      </trkpt>
      <trkpt lat="45.77343" lon="6.29991">
        <ele>772.79</ele>
        <time>2024-03-24T18:10:55.240Z</time>
      </trkpt>
      <trkpt lat="45.77275" lon="6.29932">
        <ele>776.78</ele>
        <time>2024-03-24T18:10:55.913Z</time>
      </trkpt>
      <trkpt lat="45.77265" lon="6.29922">
        <ele>781</ele>
        <time>2024-03-24T18:10:56.591Z</time>
      </trkpt>
      <trkpt lat="45.77255" lon="6.29897">
        <ele>785.81</ele>
        <time>2024-03-24T18:10:57.275Z</time>
      </trkpt>
      <trkpt lat="45.77251" lon="6.29881">
        <ele>790.64</ele>
        <time>2024-03-24T18:10:57.963Z</time>
      </trkpt>
      <trkpt lat="45.77247" lon="6.29859">
        <ele>795.76</ele>
        <time>2024-03-24T18:10:58.657Z</time>
      </trkpt>
      <trkpt lat="45.77244" lon="6.29844">
        <ele>800.88</ele>
        <time>2024-03-24T18:10:59.354Z</time>
      </trkpt>
      <trkpt lat="45.7724" lon="6.29837">
        <ele>805.84</ele>
        <time>2024-03-24T18:11:00.053Z</time>
      </trkpt>
      <trkpt lat="45.77236" lon="6.29833">
        <ele>810.82</ele>
        <time>2024-03-24T18:11:00.754Z</time>
      </trkpt>
      <trkpt lat="45.77217" lon="6.29829">
        <ele>815.6</ele>
        <time>2024-03-24T18:11:01.462Z</time>
      </trkpt>
      <trkpt lat="45.77209" lon="6.2983">
        <ele>820.61</ele>
        <time>2024-03-24T18:11:02.172Z</time>
      </trkpt>
      <trkpt lat="45.7719" lon="6.29836">
        <ele>825.62</ele>
        <time>2024-03-24T18:11:02.889Z</time>
      </trkpt>
      <trkpt lat="45.77185" lon="6.29836">
        <ele>831</ele>
        <time>2024-03-24T18:11:03.607Z</time>
      </trkpt>
      <trkpt lat="45.7718" lon="6.29833">
        <ele>836.56</ele>
        <time>2024-03-24T18:11:04.327Z</time>
      </trkpt>
      <trkpt lat="45.77175" lon="6.29826">
        <ele>842.33</ele>
        <time>2024-03-24T18:11:05.049Z</time>
      </trkpt>
      <trkpt lat="45.77163" lon="6.29807">
        <ele>848.41</ele>
        <time>2024-03-24T18:11:05.777Z</time>
      </trkpt>
      <trkpt lat="45.77114" lon="6.29761">
        <ele>854.99</ele>
        <time>2024-03-24T18:11:06.525Z</time>
      </trkpt>
      <trkpt lat="45.77074" lon="6.29717">
        <ele>861.45</ele>
        <time>2024-03-24T18:11:07.290Z</time>
      </trkpt>
      <trkpt lat="45.77048" lon="6.29676">
        <ele>867.68</ele>
        <time>2024-03-24T18:11:08.067Z</time>
      </trkpt>
      <trkpt lat="45.77032" lon="6.29658">
        <ele>873.86</ele>
        <time>2024-03-24T18:11:08.851Z</time>
      </trkpt>
      <trkpt lat="45.76996" lon="6.29593">
        <ele>880.49</ele>
        <time>2024-03-24T18:11:09.655Z</time>
      </trkpt>
      <trkpt lat="45.76958" lon="6.29486">
        <ele>888.34</ele>
        <time>2024-03-24T18:11:10.487Z</time>
      </trkpt>
      <trkpt lat="45.76954" lon="6.29471">
        <ele>894.88</ele>
        <time>2024-03-24T18:11:11.323Z</time>
      </trkpt>
      <trkpt lat="45.7694" lon="6.29428">
        <ele>901.33</ele>
        <time>2024-03-24T18:11:12.170Z</time>
      </trkpt>
      <trkpt lat="45.76863" lon="6.29219">
        <ele>908.82</ele>
        <time>2024-03-24T18:11:13.072Z</time>
      </trkpt>
      <trkpt lat="45.7683" lon="6.29154">
        <ele>915.24</ele>
        <time>2024-03-24T18:11:13.993Z</time>
      </trkpt>
      <trkpt lat="45.76787" lon="6.29098">
        <ele>920.87</ele>
        <time>2024-03-24T18:11:14.933Z</time>
      </trkpt>
      <trkpt lat="45.76753" lon="6.29058">
        <ele>926.03</ele>
        <time>2024-03-24T18:11:15.888Z</time>
      </trkpt>
      <trkpt lat="45.76749" lon="6.29047">
        <ele>931.26</ele>
        <time>2024-03-24T18:11:16.845Z</time>
      </trkpt>
      <trkpt lat="45.76748" lon="6.29035">
        <ele>936.29</ele>
        <time>2024-03-24T18:11:17.805Z</time>
      </trkpt>
      <trkpt lat="45.76741" lon="6.29011">
        <ele>941.26</ele>
        <time>2024-03-24T18:11:18.771Z</time>
      </trkpt>
      <trkpt lat="45.76741" lon="6.28997">
        <ele>945.8</ele>
        <time>2024-03-24T18:11:19.740Z</time>
      </trkpt>
      <trkpt lat="45.76745" lon="6.28979">
        <ele>950.18</ele>
        <time>2024-03-24T18:11:20.714Z</time>
      </trkpt>
      <trkpt lat="45.76747" lon="6.28965">
        <ele>954.17</ele>
        <time>2024-03-24T18:11:21.691Z</time>
      </trkpt>
      <trkpt lat="45.76746" lon="6.28955">
        <ele>957.65</ele>
        <time>2024-03-24T18:11:22.670Z</time>
      </trkpt>
      <trkpt lat="45.76744" lon="6.28947">
        <ele>960.77</ele>
        <time>2024-03-24T18:11:23.652Z</time>
      </trkpt>
      <trkpt lat="45.7674" lon="6.28943">
        <ele>963.52</ele>
        <time>2024-03-24T18:11:24.635Z</time>
      </trkpt>
      <trkpt lat="45.76734" lon="6.2894">
        <ele>965.91</ele>
        <time>2024-03-24T18:11:25.620Z</time>
      </trkpt>
      <trkpt lat="45.76722" lon="6.28938">
        <ele>967.96</ele>
        <time>2024-03-24T18:11:26.609Z</time>
      </trkpt>
      <trkpt lat="45.76699" lon="6.28936">
        <ele>969.71</ele>
        <time>2024-03-24T18:11:27.606Z</time>
      </trkpt>
      <trkpt lat="45.76664" lon="6.2894">
        <ele>971.39</ele>
        <time>2024-03-24T18:11:28.615Z</time>
      </trkpt>
      <trkpt lat="45.7665" lon="6.28947">
        <ele>972.94</ele>
        <time>2024-03-24T18:11:29.628Z</time>
      </trkpt>
      <trkpt lat="45.76642" lon="6.28948">
        <ele>974.48</ele>
        <time>2024-03-24T18:11:30.644Z</time>
      </trkpt>
      <trkpt lat="45.76621" lon="6.28948">
        <ele>976.08</ele>
        <time>2024-03-24T18:11:31.667Z</time>
      </trkpt>
      <trkpt lat="45.76592" lon="6.28951">
        <ele>977.61</ele>
        <time>2024-03-24T18:11:32.700Z</time>
      </trkpt>
      <trkpt lat="45.76584" lon="6.28953">
        <ele>979.04</ele>
        <time>2024-03-24T18:11:33.736Z</time>
      </trkpt>
      <trkpt lat="45.76575" lon="6.28951">
        <ele>980.54</ele>
        <time>2024-03-24T18:11:34.775Z</time>
      </trkpt>
      <trkpt lat="45.76569" lon="6.28946">
        <ele>982.13</ele>
        <time>2024-03-24T18:11:35.816Z</time>
      </trkpt>
      <trkpt lat="45.76563" lon="6.28934">
        <ele>983.88</ele>
        <time>2024-03-24T18:11:36.861Z</time>
      </trkpt>
      <trkpt lat="45.7656" lon="6.28919">
        <ele>985.75</ele>
        <time>2024-03-24T18:11:37.909Z</time>
      </trkpt>
      <trkpt lat="45.76555" lon="6.28856">
        <ele>988.23</ele>
        <time>2024-03-24T18:11:38.972Z</time>
      </trkpt>
      <trkpt lat="45.76557" lon="6.28841">
        <ele>990.37</ele>
        <time>2024-03-24T18:11:40.038Z</time>
      </trkpt>
      <trkpt lat="45.76561" lon="6.28836">
        <ele>992.64</ele>
        <time>2024-03-24T18:11:41.106Z</time>
      </trkpt>
      <trkpt lat="45.76583" lon="6.28829">
        <ele>995.17</ele>
        <time>2024-03-24T18:11:42.182Z</time>
      </trkpt>
      <trkpt lat="45.76587" lon="6.28824">
        <ele>997.99</ele>
        <time>2024-03-24T18:11:43.260Z</time>
      </trkpt>
      <trkpt lat="45.76589" lon="6.28818">
        <ele>1001.09</ele>
        <time>2024-03-24T18:11:44.339Z</time>
      </trkpt>
      <trkpt lat="45.76591" lon="6.28782">
        <ele>1004.67</ele>
        <time>2024-03-24T18:11:45.427Z</time>
      </trkpt>
      <trkpt lat="45.76593" lon="6.28777">
        <ele>1008.41</ele>
        <time>2024-03-24T18:11:46.516Z</time>
      </trkpt>
      <trkpt lat="45.76597" lon="6.28772">
        <ele>1012.53</ele>
        <time>2024-03-24T18:11:47.607Z</time>
      </trkpt>
      <trkpt lat="45.76602" lon="6.2877">
        <ele>1016.98</ele>
        <time>2024-03-24T18:11:48.699Z</time>
      </trkpt>
      <trkpt lat="45.76631" lon="6.28762">
        <ele>1022.16</ele>
        <time>2024-03-24T18:11:49.801Z</time>
      </trkpt>
      <trkpt lat="45.76666" lon="6.28752">
        <ele>1027.88</ele>
        <time>2024-03-24T18:11:50.915Z</time>
      </trkpt>
      <trkpt lat="45.76694" lon="6.28716">
        <ele>1034.25</ele>
        <time>2024-03-24T18:11:52.042Z</time>
      </trkpt>
      <trkpt lat="45.76709" lon="6.28711">
        <ele>1040.19</ele>
        <time>2024-03-24T18:11:53.174Z</time>
      </trkpt>
      <trkpt lat="45.76713" lon="6.28708">
        <ele>1046.2</ele>
        <time>2024-03-24T18:11:54.307Z</time>
      </trkpt>
      <trkpt lat="45.76714" lon="6.28704">
        <ele>1052.43</ele>
        <time>2024-03-24T18:11:55.441Z</time>
      </trkpt>
      <trkpt lat="45.76707" lon="6.28694">
        <ele>1058.85</ele>
        <time>2024-03-24T18:11:56.578Z</time>
      </trkpt>
      <trkpt lat="45.76704" lon="6.28688">
        <ele>1065.55</ele>
        <time>2024-03-24T18:11:57.717Z</time>
      </trkpt>
      <trkpt lat="45.76705" lon="6.28684">
        <ele>1072.55</ele>
        <time>2024-03-24T18:11:58.857Z</time>
      </trkpt>
      <trkpt lat="45.76718" lon="6.28676">
        <ele>1079.95</ele>
        <time>2024-03-24T18:12:00.002Z</time>
      </trkpt>
      <trkpt lat="45.76734" lon="6.28658">
        <ele>1087.62</ele>
        <time>2024-03-24T18:12:01.154Z</time>
      </trkpt>
      <trkpt lat="45.76751" lon="6.2865">
        <ele>1095.57</ele>
        <time>2024-03-24T18:12:02.311Z</time>
      </trkpt>
      <trkpt lat="45.76775" lon="6.28651">
        <ele>1103.81</ele>
        <time>2024-03-24T18:12:03.477Z</time>
      </trkpt>
      <trkpt lat="45.76784" lon="6.28645">
        <ele>1111.85</ele>
        <time>2024-03-24T18:12:04.646Z</time>
      </trkpt>
      <trkpt lat="45.76798" lon="6.28634">
        <ele>1120.04</ele>
        <time>2024-03-24T18:12:05.820Z</time>
      </trkpt>
      <trkpt lat="45.76806" lon="6.28631">
        <ele>1128.15</ele>
        <time>2024-03-24T18:12:06.997Z</time>
      </trkpt>
      <trkpt lat="45.76841" lon="6.28624">
        <ele>1136.95</ele>
        <time>2024-03-24T18:12:08.186Z</time>
      </trkpt>
      <trkpt lat="45.76908" lon="6.28655">
        <ele>1145.96</ele>
        <time>2024-03-24T18:12:09.399Z</time>
      </trkpt>
      <trkpt lat="45.76958" lon="6.28663">
        <ele>1154.6</ele>
        <time>2024-03-24T18:12:10.628Z</time>
      </trkpt>
      <trkpt lat="45.7703" lon="6.28718">
        <ele>1163.17</ele>
        <time>2024-03-24T18:12:11.885Z</time>
      </trkpt>
      <trkpt lat="45.77079" lon="6.28776">
        <ele>1171.31</ele>
        <time>2024-03-24T18:12:13.163Z</time>
      </trkpt>
      <trkpt lat="45.77135" lon="6.28856">
        <ele>1179.29</ele>
        <time>2024-03-24T18:12:14.467Z</time>
      </trkpt>
      <trkpt lat="45.77138" lon="6.28864">
        <ele>1186.02</ele>
        <time>2024-03-24T18:12:15.773Z</time>
      </trkpt>
      <trkpt lat="45.77136" lon="6.28876">
        <ele>1192.24</ele>
        <time>2024-03-24T18:12:17.082Z</time>
      </trkpt>
      <trkpt lat="45.77137" lon="6.28892">
        <ele>1198.13</ele>
        <time>2024-03-24T18:12:18.395Z</time>
      </trkpt>
      <trkpt lat="45.77142" lon="6.28898">
        <ele>1203.77</ele>
        <time>2024-03-24T18:12:19.710Z</time>
      </trkpt>
      <trkpt lat="45.77146" lon="6.28901">
        <ele>1209.02</ele>
        <time>2024-03-24T18:12:21.026Z</time>
      </trkpt>
      <trkpt lat="45.77148" lon="6.28901">
        <ele>1213.82</ele>
        <time>2024-03-24T18:12:22.343Z</time>
      </trkpt>
      <trkpt lat="45.77163" lon="6.2894">
        <ele>1218.13</ele>
        <time>2024-03-24T18:12:23.671Z</time>
      </trkpt>
      <trkpt lat="45.77192" lon="6.29">
        <ele>1222.24</ele>
        <time>2024-03-24T18:12:25.016Z</time>
      </trkpt>
      <trkpt lat="45.77217" lon="6.29032">
        <ele>1225.66</ele>
        <time>2024-03-24T18:12:26.372Z</time>
      </trkpt>
      <trkpt lat="45.77272" lon="6.29083">
        <ele>1228.89</ele>
        <time>2024-03-24T18:12:27.750Z</time>
      </trkpt>
      <trkpt lat="45.7734" lon="6.2909">
        <ele>1231.97</ele>
        <time>2024-03-24T18:12:29.151Z</time>
      </trkpt>
      <trkpt lat="45.77347" lon="6.29092">
        <ele>1234.13</ele>
        <time>2024-03-24T18:12:30.554Z</time>
      </trkpt>
      <trkpt lat="45.77352" lon="6.29094">
        <ele>1235.86</ele>
        <time>2024-03-24T18:12:31.959Z</time>
      </trkpt>
      <trkpt lat="45.77365" lon="6.29104">
        <ele>1237.12</ele>
        <time>2024-03-24T18:12:33.368Z</time>
      </trkpt>
      <trkpt lat="45.77411" lon="6.29117">
        <ele>1237.93</ele>
        <time>2024-03-24T18:12:34.793Z</time>
      </trkpt>
      <trkpt lat="45.77434" lon="6.29135">
        <ele>1238.36</ele>
        <time>2024-03-24T18:12:36.227Z</time>
      </trkpt>
      <trkpt lat="45.77443" lon="6.29146">
        <ele>1238.5</ele>
        <time>2024-03-24T18:12:37.665Z</time>
      </trkpt>
      <trkpt lat="45.77455" lon="6.29167">
        <ele>1238.17</ele>
        <time>2024-03-24T18:12:39.109Z</time>
      </trkpt>
      <trkpt lat="45.77462" lon="6.29183">
        <ele>1237.7</ele>
        <time>2024-03-24T18:12:40.558Z</time>
      </trkpt>
      <trkpt lat="45.77471" lon="6.29195">
        <ele>1237.09</ele>
        <time>2024-03-24T18:12:42.011Z</time>
      </trkpt>
      <trkpt lat="45.77481" lon="6.29203">
        <ele>1236.33</ele>
        <time>2024-03-24T18:12:43.467Z</time>
      </trkpt>
      <trkpt lat="45.77492" lon="6.2921">
        <ele>1235.33</ele>
        <time>2024-03-24T18:12:44.928Z</time>
      </trkpt>
      <trkpt lat="45.77516" lon="6.2922">
        <ele>1234.21</ele>
        <time>2024-03-24T18:12:46.397Z</time>
      </trkpt>
      <trkpt lat="45.77532" lon="6.29221">
        <ele>1233.03</ele>
        <time>2024-03-24T18:12:47.871Z</time>
      </trkpt>
      <trkpt lat="45.77549" lon="6.29217">
        <ele>1231.68</ele>
        <time>2024-03-24T18:12:49.351Z</time>
      </trkpt>
      <trkpt lat="45.77562" lon="6.29223">
        <ele>1229.95</ele>
        <time>2024-03-24T18:12:50.835Z</time>
      </trkpt>
      <trkpt lat="45.77565" lon="6.29232">
        <ele>1227.98</ele>
        <time>2024-03-24T18:12:52.322Z</time>
      </trkpt>
      <trkpt lat="45.77565" lon="6.29244">
        <ele>1225.82</ele>
        <time>2024-03-24T18:12:53.811Z</time>
      </trkpt>
      <trkpt lat="45.77569" lon="6.29258">
        <ele>1223.64</ele>
        <time>2024-03-24T18:12:55.304Z</time>
      </trkpt>
      <trkpt lat="45.77569" lon="6.29266">
        <ele>1221.47</ele>
        <time>2024-03-24T18:12:56.799Z</time>
      </trkpt>
      <trkpt lat="45.77575" lon="6.29272">
        <ele>1219.21</ele>
        <time>2024-03-24T18:12:58.296Z</time>
      </trkpt>
      <trkpt lat="45.77577" lon="6.29276">
        <ele>1216.9</ele>
        <time>2024-03-24T18:12:59.794Z</time>
      </trkpt>
      <trkpt lat="45.77575" lon="6.29279">
        <ele>1214.56</ele>
        <time>2024-03-24T18:13:01.293Z</time>
      </trkpt>
      <trkpt lat="45.7757" lon="6.29285">
        <ele>1212.16</ele>
        <time>2024-03-24T18:13:02.794Z</time>
      </trkpt>
      <trkpt lat="45.77564" lon="6.29288">
        <ele>1209.74</ele>
        <time>2024-03-24T18:13:04.297Z</time>
      </trkpt>
      <trkpt lat="45.77557" lon="6.29289">
        <ele>1207.23</ele>
        <time>2024-03-24T18:13:05.803Z</time>
      </trkpt>
      <trkpt lat="45.77547" lon="6.29291">
        <ele>1204.64</ele>
        <time>2024-03-24T18:13:07.312Z</time>
      </trkpt>
      <trkpt lat="45.77533" lon="6.29291">
        <ele>1202.01</ele>
        <time>2024-03-24T18:13:08.826Z</time>
      </trkpt>
      <trkpt lat="45.77528" lon="6.29294">
        <ele>1199.3</ele>
        <time>2024-03-24T18:13:10.342Z</time>
      </trkpt>
      <trkpt lat="45.77512" lon="6.29314">
        <ele>1196.08</ele>
        <time>2024-03-24T18:13:11.865Z</time>
      </trkpt>
      <trkpt lat="45.7751" lon="6.2932">
        <ele>1193.2</ele>
        <time>2024-03-24T18:13:13.389Z</time>
      </trkpt>
      <trkpt lat="45.7751" lon="6.29325">
        <ele>1190.32</ele>
        <time>2024-03-24T18:13:14.915Z</time>
      </trkpt>
      <trkpt lat="45.77514" lon="6.29328">
        <ele>1187.46</ele>
        <time>2024-03-24T18:13:16.442Z</time>
      </trkpt>
      <trkpt lat="45.77522" lon="6.29332">
        <ele>1184.6</ele>
        <time>2024-03-24T18:13:17.972Z</time>
      </trkpt>
      <trkpt lat="45.77524" lon="6.29335">
        <ele>1181.63</ele>
        <time>2024-03-24T18:13:19.503Z</time>
      </trkpt>
      <trkpt lat="45.77524" lon="6.29341">
        <ele>1178.52</ele>
        <time>2024-03-24T18:13:21.035Z</time>
      </trkpt>
      <trkpt lat="45.77517" lon="6.29352">
        <ele>1175.14</ele>
        <time>2024-03-24T18:13:22.571Z</time>
      </trkpt>
      <trkpt lat="45.77517" lon="6.29356">
        <ele>1171.97</ele>
        <time>2024-03-24T18:13:24.108Z</time>
      </trkpt>
      <trkpt lat="45.7752" lon="6.29361">
        <ele>1168.77</ele>
        <time>2024-03-24T18:13:25.646Z</time>
      </trkpt>
      <trkpt lat="45.77526" lon="6.29365">
        <ele>1165.57</ele>
        <time>2024-03-24T18:13:27.187Z</time>
      </trkpt>
      <trkpt lat="45.77541" lon="6.2938">
        <ele>1162.1</ele>
        <time>2024-03-24T18:13:28.734Z</time>
      </trkpt>
      <trkpt lat="45.77556" lon="6.29401">
        <ele>1158.32</ele>
        <time>2024-03-24T18:13:30.288Z</time>
      </trkpt>
      <trkpt lat="45.77564" lon="6.29404">
        <ele>1154.99</ele>
        <time>2024-03-24T18:13:31.845Z</time>
      </trkpt>
      <trkpt lat="45.77572" lon="6.29408">
        <ele>1151.54</ele>
        <time>2024-03-24T18:13:33.404Z</time>
      </trkpt>
      <trkpt lat="45.77576" lon="6.29413">
        <ele>1148.02</ele>
        <time>2024-03-24T18:13:34.965Z</time>
      </trkpt>
      <trkpt lat="45.77577" lon="6.29418">
        <ele>1144.42</ele>
        <time>2024-03-24T18:13:36.527Z</time>
      </trkpt>
      <trkpt lat="45.77573" lon="6.29426">
        <ele>1140.64</ele>
        <time>2024-03-24T18:13:38.091Z</time>
      </trkpt>
      <trkpt lat="45.77573" lon="6.29436">
        <ele>1136.72</ele>
        <time>2024-03-24T18:13:39.658Z</time>
      </trkpt>
      <trkpt lat="45.77576" lon="6.29443">
        <ele>1132.91</ele>
        <time>2024-03-24T18:13:41.227Z</time>
      </trkpt>
      <trkpt lat="45.7758" lon="6.29449">
        <ele>1129.14</ele>
        <time>2024-03-24T18:13:42.797Z</time>
      </trkpt>
      <trkpt lat="45.77582" lon="6.29456">
        <ele>1125.25</ele>
        <time>2024-03-24T18:13:44.369Z</time>
      </trkpt>
      <trkpt lat="45.77589" lon="6.29464">
        <ele>1121.32</ele>
        <time>2024-03-24T18:13:45.944Z</time>
      </trkpt>
      <trkpt lat="45.7759" lon="6.29469">
        <ele>1117.33</ele>
        <time>2024-03-24T18:13:47.521Z</time>
      </trkpt>
      <trkpt lat="45.77588" lon="6.29474">
        <ele>1113.25</ele>
        <time>2024-03-24T18:13:49.099Z</time>
      </trkpt>
      <trkpt lat="45.77574" lon="6.29487">
        <ele>1108.75</ele>
        <time>2024-03-24T18:13:50.682Z</time>
      </trkpt>
      <trkpt lat="45.77572" lon="6.29491">
        <ele>1104.56</ele>
        <time>2024-03-24T18:13:52.267Z</time>
      </trkpt>
      <trkpt lat="45.77571" lon="6.29496">
        <ele>1100.28</ele>
        <time>2024-03-24T18:13:53.853Z</time>
      </trkpt>
      <trkpt lat="45.77572" lon="6.29501">
        <ele>1095.91</ele>
        <time>2024-03-24T18:13:55.440Z</time>
      </trkpt>
      <trkpt lat="45.77588" lon="6.2952">
        <ele>1091.23</ele>
        <time>2024-03-24T18:13:57.034Z</time>
      </trkpt>
      <trkpt lat="45.77592" lon="6.29529">
        <ele>1086.62</ele>
        <time>2024-03-24T18:13:58.630Z</time>
      </trkpt>
      <trkpt lat="45.77592" lon="6.29537">
        <ele>1081.89</ele>
        <time>2024-03-24T18:14:00.228Z</time>
      </trkpt>
      <trkpt lat="45.77587" lon="6.29542">
        <ele>1077.16</ele>
        <time>2024-03-24T18:14:01.828Z</time>
      </trkpt>
      <trkpt lat="45.7757" lon="6.29549">
        <ele>1072.14</ele>
        <time>2024-03-24T18:14:03.434Z</time>
      </trkpt>
      <trkpt lat="45.77558" lon="6.29561">
        <ele>1067.12</ele>
        <time>2024-03-24T18:14:05.045Z</time>
      </trkpt>
      <trkpt lat="45.77553" lon="6.29568">
        <ele>1062.24</ele>
        <time>2024-03-24T18:14:06.658Z</time>
      </trkpt>
      <trkpt lat="45.77556" lon="6.29575">
        <ele>1057.28</ele>
        <time>2024-03-24T18:14:08.273Z</time>
      </trkpt>
      <trkpt lat="45.77565" lon="6.29584">
        <ele>1052.21</ele>
        <time>2024-03-24T18:14:09.892Z</time>
      </trkpt>
      <trkpt lat="45.77575" lon="6.2959">
        <ele>1047.28</ele>
        <time>2024-03-24T18:14:11.514Z</time>
      </trkpt>
      <trkpt lat="45.77595" lon="6.29603">
        <ele>1042.23</ele>
        <time>2024-03-24T18:14:13.144Z</time>
      </trkpt>
      <trkpt lat="45.7764" lon="6.29634">
        <ele>1036.38</ele>
        <time>2024-03-24T18:14:14.790Z</time>
      </trkpt>
      <trkpt lat="45.77646" lon="6.29636">
        <ele>1031.14</ele>
        <time>2024-03-24T18:14:16.438Z</time>
      </trkpt>
      <trkpt lat="45.77651" lon="6.29628">
        <ele>1026.13</ele>
        <time>2024-03-24T18:14:18.089Z</time>
      </trkpt>
      <trkpt lat="45.77657" lon="6.29626">
        <ele>1020.93</ele>
        <time>2024-03-24T18:14:19.742Z</time>
      </trkpt>
      <trkpt lat="45.77664" lon="6.29634">
        <ele>1015.49</ele>
        <time>2024-03-24T18:14:21.398Z</time>
      </trkpt>
      <trkpt lat="45.77677" lon="6.29668">
        <ele>1009.62</ele>
        <time>2024-03-24T18:14:23.063Z</time>
      </trkpt>
      <trkpt lat="45.77684" lon="6.2972">
        <ele>1003.69</ele>
        <time>2024-03-24T18:14:24.741Z</time>
      </trkpt>
      <trkpt lat="45.77682" lon="6.29753">
        <ele>997.8</ele>
        <time>2024-03-24T18:14:26.426Z</time>
      </trkpt>
      <trkpt lat="45.77682" lon="6.2979">
        <ele>991.59</ele>
        <time>2024-03-24T18:14:28.120Z</time>
      </trkpt>
      <trkpt lat="45.77686" lon="6.29807">
        <ele>986.12</ele>
        <time>2024-03-24T18:14:29.818Z</time>
      </trkpt>
      <trkpt lat="45.77692" lon="6.29821">
        <ele>980.86</ele>
        <time>2024-03-24T18:14:31.520Z</time>
      </trkpt>
      <trkpt lat="45.77694" lon="6.29833">
        <ele>975.52</ele>
        <time>2024-03-24T18:14:33.225Z</time>
      </trkpt>
      <trkpt lat="45.77689" lon="6.29854">
        <ele>970.1</ele>
        <time>2024-03-24T18:14:34.935Z</time>
      </trkpt>
      <trkpt lat="45.77684" lon="6.29871">
        <ele>964.63</ele>
        <time>2024-03-24T18:14:36.649Z</time>
      </trkpt>
      <trkpt lat="45.77683" lon="6.29886">
        <ele>959.24</ele>
        <time>2024-03-24T18:14:38.367Z</time>
      </trkpt>
      <trkpt lat="45.77688" lon="6.29899">
        <ele>953.92</ele>
        <time>2024-03-24T18:14:40.088Z</time>
      </trkpt>
      <trkpt lat="45.77699" lon="6.29912">
        <ele>948.78</ele>
        <time>2024-03-24T18:14:41.814Z</time>
      </trkpt>
      <trkpt lat="45.77715" lon="6.29928">
        <ele>943.37</ele>
        <time>2024-03-24T18:14:43.547Z</time>
      </trkpt>
      <trkpt lat="45.77757" lon="6.29961">
        <ele>937.6</ele>
        <time>2024-03-24T18:14:45.296Z</time>
      </trkpt>
      <trkpt lat="45.77781" lon="6.29979">
        <ele>932.04</ele>
        <time>2024-03-24T18:14:47.054Z</time>
      </trkpt>
      <trkpt lat="45.77797" lon="6.30003">
        <ele>926.33</ele>
        <time>2024-03-24T18:14:48.819Z</time>
      </trkpt>
      <trkpt lat="45.77806" lon="6.30024">
        <ele>920.61</ele>
        <time>2024-03-24T18:14:50.590Z</time>
      </trkpt>
      <trkpt lat="45.77819" lon="6.30042">
        <ele>915.4</ele>
        <time>2024-03-24T18:14:52.367Z</time>
      </trkpt>
      <trkpt lat="45.77842" lon="6.30066">
        <ele>910.37</ele>
        <time>2024-03-24T18:14:54.154Z</time>
      </trkpt>
      <trkpt lat="45.77853" lon="6.30076">
        <ele>905.38</ele>
        <time>2024-03-24T18:14:55.945Z</time>
      </trkpt>
      <trkpt lat="45.77862" lon="6.30092">
        <ele>900.31</ele>
        <time>2024-03-24T18:14:57.741Z</time>
      </trkpt>
      <trkpt lat="45.77867" lon="6.30105">
        <ele>895.3</ele>
        <time>2024-03-24T18:14:59.540Z</time>
      </trkpt>
      <trkpt lat="45.77881" lon="6.30125">
        <ele>890.41</ele>
        <time>2024-03-24T18:15:01.346Z</time>
      </trkpt>
      <trkpt lat="45.77905" lon="6.30138">
        <ele>885.82</ele>
        <time>2024-03-24T18:15:03.160Z</time>
      </trkpt>
      <trkpt lat="45.77912" lon="6.30148">
        <ele>881.09</ele>
        <time>2024-03-24T18:15:04.978Z</time>
      </trkpt>
      <trkpt lat="45.77922" lon="6.30171">
        <ele>876.18</ele>
        <time>2024-03-24T18:15:06.802Z</time>
      </trkpt>
      <trkpt lat="45.7793" lon="6.3018">
        <ele>871.53</ele>
        <time>2024-03-24T18:15:08.629Z</time>
      </trkpt>
      <trkpt lat="45.77944" lon="6.3019">
        <ele>866.91</ele>
        <time>2024-03-24T18:15:10.462Z</time>
      </trkpt>
      <trkpt lat="45.77955" lon="6.30201">
        <ele>862.35</ele>
        <time>2024-03-24T18:15:12.299Z</time>
      </trkpt>
      <trkpt lat="45.77969" lon="6.30219">
        <ele>857.79</ele>
        <time>2024-03-24T18:15:14.142Z</time>
      </trkpt>
      <trkpt lat="45.77981" lon="6.30237">
        <ele>853.26</ele>
        <time>2024-03-24T18:15:15.991Z</time>
      </trkpt>
      <trkpt lat="45.77987" lon="6.30248">
        <ele>848.73</ele>
        <time>2024-03-24T18:15:17.843Z</time>
      </trkpt>
      <trkpt lat="45.77988" lon="6.30255">
        <ele>844.19</ele>
        <time>2024-03-24T18:15:19.697Z</time>
      </trkpt>
      <trkpt lat="45.77987" lon="6.30263">
        <ele>839.65</ele>
        <time>2024-03-24T18:15:21.553Z</time>
      </trkpt>
      <trkpt lat="45.7798" lon="6.30272">
        <ele>835.02</ele>
        <time>2024-03-24T18:15:23.412Z</time>
      </trkpt>
      <trkpt lat="45.77978" lon="6.30282">
        <ele>830.5</ele>
        <time>2024-03-24T18:15:25.273Z</time>
      </trkpt>
      <trkpt lat="45.77975" lon="6.30287">
        <ele>826.09</ele>
        <time>2024-03-24T18:15:27.136Z</time>
      </trkpt>
      <trkpt lat="45.77945" lon="6.30319">
        <ele>820.99</ele>
        <time>2024-03-24T18:15:29.012Z</time>
      </trkpt>
      <trkpt lat="45.77941" lon="6.3033">
        <ele>816.67</ele>
        <time>2024-03-24T18:15:30.891Z</time>
      </trkpt>
      <trkpt lat="45.7794" lon="6.30336">
        <ele>812.49</ele>
        <time>2024-03-24T18:15:32.771Z</time>
      </trkpt>
      <trkpt lat="45.77939" lon="6.30344">
        <ele>808.31</ele>
        <time>2024-03-24T18:15:34.653Z</time>
      </trkpt>
      <trkpt lat="45.77943" lon="6.30366">
        <ele>804.09</ele>
        <time>2024-03-24T18:15:36.540Z</time>
      </trkpt>
      <trkpt lat="45.7795" lon="6.30385">
        <ele>800.09</ele>
        <time>2024-03-24T18:15:38.432Z</time>
      </trkpt>
      <trkpt lat="45.77952" lon="6.30397">
        <ele>796.19</ele>
        <time>2024-03-24T18:15:40.327Z</time>
      </trkpt>
      <trkpt lat="45.77952" lon="6.30408">
        <ele>792.38</ele>
        <time>2024-03-24T18:15:42.225Z</time>
      </trkpt>
      <trkpt lat="45.77949" lon="6.30421">
        <ele>788.64</ele>
        <time>2024-03-24T18:15:44.126Z</time>
      </trkpt>
      <trkpt lat="45.77943" lon="6.3043">
        <ele>785.06</ele>
        <time>2024-03-24T18:15:46.030Z</time>
      </trkpt>
      <trkpt lat="45.77929" lon="6.30445">
        <ele>781.46</ele>
        <time>2024-03-24T18:15:47.940Z</time>
      </trkpt>
      <trkpt lat="45.77925" lon="6.30457">
        <ele>778.2</ele>
        <time>2024-03-24T18:15:49.853Z</time>
      </trkpt>
      <trkpt lat="45.77926" lon="6.30469">
        <ele>775.12</ele>
        <time>2024-03-24T18:15:51.769Z</time>
      </trkpt>
      <trkpt lat="45.77927" lon="6.30477">
        <ele>772.26</ele>
        <time>2024-03-24T18:15:53.687Z</time>
      </trkpt>
      <trkpt lat="45.77924" lon="6.30486">
        <ele>769.54</ele>
        <time>2024-03-24T18:15:55.607Z</time>
      </trkpt>
      <trkpt lat="45.77922" lon="6.3049">
        <ele>767.01</ele>
        <time>2024-03-24T18:15:57.528Z</time>
      </trkpt>
      <trkpt lat="45.77919" lon="6.30491">
        <ele>764.66</ele>
        <time>2024-03-24T18:15:59.450Z</time>
      </trkpt>
      <trkpt lat="45.77912" lon="6.30492">
        <ele>762.45</ele>
        <time>2024-03-24T18:16:01.374Z</time>
      </trkpt>
      <trkpt lat="45.77902" lon="6.30527">
        <ele>760.14</ele>
        <time>2024-03-24T18:16:03.307Z</time>
      </trkpt>
      <trkpt lat="45.77902" lon="6.30533">
        <ele>758.23</ele>
        <time>2024-03-24T18:16:05.242Z</time>
      </trkpt>
      <trkpt lat="45.77911" lon="6.30545">
        <ele>756.45</ele>
        <time>2024-03-24T18:16:07.181Z</time>
      </trkpt>
      <trkpt lat="45.77921" lon="6.30555">
        <ele>754.8</ele>
        <time>2024-03-24T18:16:09.124Z</time>
      </trkpt>
      <trkpt lat="45.77928" lon="6.30556">
        <ele>753.34</ele>
        <time>2024-03-24T18:16:11.069Z</time>
      </trkpt>
      <trkpt lat="45.77952" lon="6.30555">
        <ele>752.02</ele>
        <time>2024-03-24T18:16:13.022Z</time>
      </trkpt>
      <trkpt lat="45.77995" lon="6.30558">
        <ele>750.73</ele>
        <time>2024-03-24T18:16:14.989Z</time>
      </trkpt>
      <trkpt lat="45.78018" lon="6.30554">
        <ele>749.62</ele>
        <time>2024-03-24T18:16:16.964Z</time>
      </trkpt>
      <trkpt lat="45.78025" lon="6.30555">
        <ele>748.64</ele>
        <time>2024-03-24T18:16:18.941Z</time>
      </trkpt>
      <trkpt lat="45.78028" lon="6.30557">
        <ele>747.74</ele>
        <time>2024-03-24T18:16:20.920Z</time>
      </trkpt>
      <trkpt lat="45.78031" lon="6.3056">
        <ele>746.93</ele>
        <time>2024-03-24T18:16:22.900Z</time>
      </trkpt>
      <trkpt lat="45.78032" lon="6.30568">
        <ele>746.16</ele>
        <time>2024-03-24T18:16:24.882Z</time>
      </trkpt>
      <trkpt lat="45.78031" lon="6.30575">
        <ele>745.52</ele>
        <time>2024-03-24T18:16:26.865Z</time>
      </trkpt>
      <trkpt lat="45.78029" lon="6.30579">
        <ele>745.04</ele>
        <time>2024-03-24T18:16:28.849Z</time>
      </trkpt>
      <trkpt lat="45.78025" lon="6.30582">
        <ele>744.65</ele>
        <time>2024-03-24T18:16:30.835Z</time>
      </trkpt>
      <trkpt lat="45.7802" lon="6.30584">
        <ele>744.37</ele>
        <time>2024-03-24T18:16:32.823Z</time>
      </trkpt>
      <trkpt lat="45.77997" lon="6.30581">
        <ele>744.31</ele>
        <time>2024-03-24T18:16:34.818Z</time>
      </trkpt>
      <trkpt lat="45.7799" lon="6.30584">
        <ele>744.17</ele>
        <time>2024-03-24T18:16:36.816Z</time>
      </trkpt>
      <trkpt lat="45.77987" lon="6.30586">
        <ele>744.1</ele>
        <time>2024-03-24T18:16:38.815Z</time>
      </trkpt>
      <trkpt lat="45.7799" lon="6.30584">
        <ele>744.12</ele>
        <time>2024-03-24T18:16:40.815Z</time>
      </trkpt>
      <trkpt lat="45.7799" lon="6.30589">
        <ele>744.14</ele>
        <time>2024-03-24T18:16:42.816Z</time>
      </trkpt>
      <trkpt lat="45.77992" lon="6.30592">
        <ele>744.26</ele>
        <time>2024-03-24T18:16:44.818Z</time>
      </trkpt>
      <trkpt lat="45.77998" lon="6.30596">
        <ele>744.43</ele>
        <time>2024-03-24T18:16:46.822Z</time>
      </trkpt>
      <trkpt lat="45.78002" lon="6.30603">
        <ele>744.66</ele>
        <time>2024-03-24T18:16:48.829Z</time>
      </trkpt>
      <trkpt lat="45.78007" lon="6.30615">
        <ele>744.93</ele>
        <time>2024-03-24T18:16:50.839Z</time>
      </trkpt>
      <trkpt lat="45.7801" lon="6.3062">
        <ele>745.35</ele>
        <time>2024-03-24T18:16:52.850Z</time>
      </trkpt>
      <trkpt lat="45.78019" lon="6.30625">
        <ele>745.83</ele>
        <time>2024-03-24T18:16:54.865Z</time>
      </trkpt>
      <trkpt lat="45.78026" lon="6.30627">
        <ele>746.43</ele>
        <time>2024-03-24T18:16:56.882Z</time>
      </trkpt>
      <trkpt lat="45.78033" lon="6.30625">
        <ele>747.17</ele>
        <time>2024-03-24T18:16:58.902Z</time>
      </trkpt>
      <trkpt lat="45.78047" lon="6.30618">
        <ele>747.96</ele>
        <time>2024-03-24T18:17:00.927Z</time>
      </trkpt>
      <trkpt lat="45.78056" lon="6.30609">
        <ele>748.93</ele>
        <time>2024-03-24T18:17:02.955Z</time>
      </trkpt>
      <trkpt lat="45.78063" lon="6.30601">
        <ele>750.02</ele>
        <time>2024-03-24T18:17:04.986Z</time>
      </trkpt>
      <trkpt lat="45.78084" lon="6.3056">
        <ele>751.53</ele>
        <time>2024-03-24T18:17:07.029Z</time>
      </trkpt>
      <trkpt lat="45.78103" lon="6.30534">
        <ele>752.94</ele>
        <time>2024-03-24T18:17:09.081Z</time>
      </trkpt>
      <trkpt lat="45.78116" lon="6.30518">
        <ele>754.25</ele>
        <time>2024-03-24T18:17:11.138Z</time>
      </trkpt>
      <trkpt lat="45.78119" lon="6.30517">
        <ele>755.51</ele>
        <time>2024-03-24T18:17:13.196Z</time>
      </trkpt>
      <trkpt lat="45.78124" lon="6.30519">
        <ele>756.83</ele>
        <time>2024-03-24T18:17:15.256Z</time>
      </trkpt>
      <trkpt lat="45.78128" lon="6.30521">
        <ele>758.18</ele>
        <time>2024-03-24T18:17:17.318Z</time>
      </trkpt>
      <trkpt lat="45.78153" lon="6.30554">
        <ele>759.52</ele>
        <time>2024-03-24T18:17:19.391Z</time>
      </trkpt>
      <trkpt lat="45.78163" lon="6.30572">
        <ele>760.83</ele>
        <time>2024-03-24T18:17:21.469Z</time>
      </trkpt>
      <trkpt lat="45.78177" lon="6.30592">
        <ele>762.27</ele>
        <time>2024-03-24T18:17:23.554Z</time>
      </trkpt>
      <trkpt lat="45.78191" lon="6.30604">
        <ele>763.86</ele>
        <time>2024-03-24T18:17:25.644Z</time>
      </trkpt>
      <trkpt lat="45.78201" lon="6.30624">
        <ele>765.11</ele>
        <time>2024-03-24T18:17:27.740Z</time>
      </trkpt>
      <trkpt lat="45.78207" lon="6.30639">
        <ele>766.37</ele>
        <time>2024-03-24T18:17:29.840Z</time>
      </trkpt>
      <trkpt lat="45.78224" lon="6.30661">
        <ele>767.8</ele>
        <time>2024-03-24T18:17:31.948Z</time>
      </trkpt>
      <trkpt lat="45.78245" lon="6.3068">
        <ele>769.36</ele>
        <time>2024-03-24T18:17:34.064Z</time>
      </trkpt>
      <trkpt lat="45.78248" lon="6.3069">
        <ele>770.67</ele>
        <time>2024-03-24T18:17:36.183Z</time>
      </trkpt>
      <trkpt lat="45.78247" lon="6.30699">
        <ele>771.87</ele>
        <time>2024-03-24T18:17:38.304Z</time>
      </trkpt>
      <trkpt lat="45.78243" lon="6.30708">
        <ele>772.99</ele>
        <time>2024-03-24T18:17:40.427Z</time>
      </trkpt>
      <trkpt lat="45.7824" lon="6.30718">
        <ele>774.09</ele>
        <time>2024-03-24T18:17:42.553Z</time>
      </trkpt>
      <trkpt lat="45.78245" lon="6.30722">
        <ele>775.07</ele>
        <time>2024-03-24T18:17:44.680Z</time>
      </trkpt>
      <trkpt lat="45.78251" lon="6.3072">
        <ele>775.91</ele>
        <time>2024-03-24T18:17:46.810Z</time>
      </trkpt>
      <trkpt lat="45.78257" lon="6.30714">
        <ele>776.6</ele>
        <time>2024-03-24T18:17:48.942Z</time>
      </trkpt>
      <trkpt lat="45.78262" lon="6.30712">
        <ele>777.15</ele>
        <time>2024-03-24T18:17:51.076Z</time>
      </trkpt>
      <trkpt lat="45.78264" lon="6.30712">
        <ele>777.51</ele>
        <time>2024-03-24T18:17:53.210Z</time>
      </trkpt>
      <trkpt lat="45.78268" lon="6.30713">
        <ele>777.68</ele>
        <time>2024-03-24T18:17:55.346Z</time>
      </trkpt>
      <trkpt lat="45.78282" lon="6.30723">
        <ele>777.64</ele>
        <time>2024-03-24T18:17:57.487Z</time>
      </trkpt>
      <trkpt lat="45.7829" lon="6.30725">
        <ele>777.38</ele>
        <time>2024-03-24T18:17:59.631Z</time>
      </trkpt>
      <trkpt lat="45.78325" lon="6.30718">
        <ele>776.95</ele>
        <time>2024-03-24T18:18:01.787Z</time>
      </trkpt>
      <trkpt lat="45.78354" lon="6.30707">
        <ele>776.12</ele>
        <time>2024-03-24T18:18:03.953Z</time>
      </trkpt>
      <trkpt lat="45.7838" lon="6.30709">
        <ele>775.06</ele>
        <time>2024-03-24T18:18:06.127Z</time>
      </trkpt>
      <trkpt lat="45.78385" lon="6.30708">
        <ele>773.74</ele>
        <time>2024-03-24T18:18:08.303Z</time>
      </trkpt>
      <trkpt lat="45.78401" lon="6.307">
        <ele>772.32</ele>
        <time>2024-03-24T18:18:10.484Z</time>
      </trkpt>
      <trkpt lat="45.78404" lon="6.307">
        <ele>770.33</ele>
        <time>2024-03-24T18:18:12.667Z</time>
      </trkpt>
      <trkpt lat="45.78407" lon="6.30702">
        <ele>767.96</ele>
        <time>2024-03-24T18:18:14.851Z</time>
      </trkpt>
      <trkpt lat="45.78408" lon="6.30707">
        <ele>765.2</ele>
        <time>2024-03-24T18:18:17.036Z</time>
      </trkpt>
      <trkpt lat="45.78408" lon="6.30716">
        <ele>762.05</ele>
        <time>2024-03-24T18:18:19.223Z</time>
      </trkpt>
      <trkpt lat="45.7841" lon="6.30722">
        <ele>758.66</ele>
        <time>2024-03-24T18:18:21.411Z</time>
      </trkpt>
      <trkpt lat="45.78414" lon="6.30733">
        <ele>754.97</ele>
        <time>2024-03-24T18:18:23.602Z</time>
      </trkpt>
      <trkpt lat="45.78414" lon="6.30729">
        <ele>751</ele>
        <time>2024-03-24T18:18:25.794Z</time>
      </trkpt>
      <trkpt lat="45.78362" lon="6.3081">
        <ele>746.19</ele>
        <time>2024-03-24T18:18:28.012Z</time>
      </trkpt>
      <trkpt lat="45.78305" lon="6.30894">
        <ele>740.13</ele>
        <time>2024-03-24T18:18:30.257Z</time>
      </trkpt>
      <trkpt lat="45.78305" lon="6.30891">
        <ele>735.68</ele>
        <time>2024-03-24T18:18:32.503Z</time>
      </trkpt>
      <trkpt lat="45.783" lon="6.3089">
        <ele>731.03</ele>
        <time>2024-03-24T18:18:34.751Z</time>
      </trkpt>
      <trkpt lat="45.78268" lon="6.30949">
        <ele>725.67</ele>
        <time>2024-03-24T18:18:37.016Z</time>
      </trkpt>
      <trkpt lat="45.78237" lon="6.31014">
        <ele>719.85</ele>
        <time>2024-03-24T18:18:39.299Z</time>
      </trkpt>
      <trkpt lat="45.78224" lon="6.31018">
        <ele>714.97</ele>
        <time>2024-03-24T18:18:41.587Z</time>
      </trkpt>
      <trkpt lat="45.78193" lon="6.31">
        <ele>710.42</ele>
        <time>2024-03-24T18:18:43.886Z</time>
      </trkpt>
      <trkpt lat="45.78166" lon="6.30995">
        <ele>705.25</ele>
        <time>2024-03-24T18:18:46.194Z</time>
      </trkpt>
      <trkpt lat="45.78139" lon="6.31016">
        <ele>699.64</ele>
        <time>2024-03-24T18:18:48.512Z</time>
      </trkpt>
      <trkpt lat="45.78122" lon="6.31022">
        <ele>694.76</ele>
        <time>2024-03-24T18:18:50.836Z</time>
      </trkpt>
      <trkpt lat="45.78099" lon="6.31013">
        <ele>690.04</ele>
        <time>2024-03-24T18:18:53.168Z</time>
      </trkpt>
      <trkpt lat="45.78084" lon="6.30996">
        <ele>685.59</ele>
        <time>2024-03-24T18:18:55.507Z</time>
      </trkpt>
      <trkpt lat="45.78076" lon="6.3097">
        <ele>681.39</ele>
        <time>2024-03-24T18:18:57.852Z</time>
      </trkpt>
      <trkpt lat="45.78073" lon="6.30931">
        <ele>677.53</ele>
        <time>2024-03-24T18:19:00.206Z</time>
      </trkpt>
      <trkpt lat="45.78062" lon="6.30907">
        <ele>673.47</ele>
        <time>2024-03-24T18:19:02.567Z</time>
      </trkpt>
      <trkpt lat="45.78059" lon="6.30903">
        <ele>669.37</ele>
        <time>2024-03-24T18:19:04.930Z</time>
      </trkpt>
      <trkpt lat="45.78042" lon="6.30919">
        <ele>664.86</ele>
        <time>2024-03-24T18:19:07.299Z</time>
      </trkpt>
      <trkpt lat="45.78023" lon="6.3095">
        <ele>660.39</ele>
        <time>2024-03-24T18:19:09.678Z</time>
      </trkpt>
      <trkpt lat="45.78012" lon="6.30957">
        <ele>656.47</ele>
        <time>2024-03-24T18:19:12.061Z</time>
      </trkpt>
      <trkpt lat="45.77998" lon="6.30953">
        <ele>652.9</ele>
        <time>2024-03-24T18:19:14.449Z</time>
      </trkpt>
      <trkpt lat="45.77974" lon="6.30948">
        <ele>649.33</ele>
        <time>2024-03-24T18:19:16.845Z</time>
      </trkpt>
      <trkpt lat="45.77944" lon="6.30942">
        <ele>645.75</ele>
        <time>2024-03-24T18:19:19.251Z</time>
      </trkpt>
      <trkpt lat="45.77912" lon="6.30952">
        <ele>642.11</ele>
        <time>2024-03-24T18:19:21.668Z</time>
      </trkpt>
      <trkpt lat="45.77865" lon="6.31014">
        <ele>637.68</ele>
        <time>2024-03-24T18:19:24.106Z</time>
      </trkpt>
      <trkpt lat="45.77848" lon="6.31025">
        <ele>634.08</ele>
        <time>2024-03-24T18:19:26.550Z</time>
      </trkpt>
      <trkpt lat="45.77845" lon="6.31026">
        <ele>630.69</ele>
        <time>2024-03-24T18:19:28.995Z</time>
      </trkpt>
      <trkpt lat="45.77814" lon="6.31028">
        <ele>627.21</ele>
        <time>2024-03-24T18:19:31.451Z</time>
      </trkpt>
      <trkpt lat="45.77798" lon="6.31022">
        <ele>624.02</ele>
        <time>2024-03-24T18:19:33.912Z</time>
      </trkpt>
      <trkpt lat="45.77786" lon="6.31025">
        <ele>620.62</ele>
        <time>2024-03-24T18:19:36.377Z</time>
      </trkpt>
      <trkpt lat="45.77755" lon="6.31017">
        <ele>617.12</ele>
        <time>2024-03-24T18:19:38.853Z</time>
      </trkpt>
      <trkpt lat="45.77707" lon="6.30987">
        <ele>613.81</ele>
        <time>2024-03-24T18:19:41.346Z</time>
      </trkpt>
      <trkpt lat="45.77634" lon="6.30995">
        <ele>610.47</ele>
        <time>2024-03-24T18:19:43.864Z</time>
      </trkpt>
      <trkpt lat="45.77624" lon="6.30998">
        <ele>607.78</ele>
        <time>2024-03-24T18:19:46.385Z</time>
      </trkpt>
      <trkpt lat="45.77625" lon="6.31003">
        <ele>605.16</ele>
        <time>2024-03-24T18:19:48.907Z</time>
      </trkpt>
      <trkpt lat="45.7765" lon="6.31045">
        <ele>602.38</ele>
        <time>2024-03-24T18:19:51.442Z</time>
      </trkpt>
      <trkpt lat="45.77654" lon="6.31054">
        <ele>599.99</ele>
        <time>2024-03-24T18:19:53.980Z</time>
      </trkpt>
      <trkpt lat="45.77653" lon="6.31057">
        <ele>597.7</ele>
        <time>2024-03-24T18:19:56.518Z</time>
      </trkpt>
      <trkpt lat="45.77651" lon="6.3106">
        <ele>595.48</ele>
        <time>2024-03-24T18:19:59.058Z</time>
      </trkpt>
      <trkpt lat="45.7766" lon="6.31068">
        <ele>593.26</ele>
        <time>2024-03-24T18:20:01.601Z</time>
      </trkpt>
      <trkpt lat="45.77674" lon="6.31075">
        <ele>591.08</ele>
        <time>2024-03-24T18:20:04.149Z</time>
      </trkpt>
      <trkpt lat="45.77706" lon="6.31081">
        <ele>588.99</ele>
        <time>2024-03-24T18:20:06.708Z</time>
      </trkpt>
      <trkpt lat="45.7771" lon="6.31086">
        <ele>586.86</ele>
        <time>2024-03-24T18:20:09.268Z</time>
      </trkpt>
      <trkpt lat="45.7771" lon="6.31087">
        <ele>584.76</ele>
        <time>2024-03-24T18:20:11.829Z</time>
      </trkpt>
      <trkpt lat="45.77711" lon="6.31097">
        <ele>582.54</ele>
        <time>2024-03-24T18:20:14.392Z</time>
      </trkpt>
      <trkpt lat="45.77769" lon="6.31122">
        <ele>580.44</ele>
        <time>2024-03-24T18:20:16.975Z</time>
      </trkpt>
      <trkpt lat="45.77792" lon="6.31129">
        <ele>578.33</ele>
        <time>2024-03-24T18:20:19.566Z</time>
      </trkpt>
      <trkpt lat="45.77814" lon="6.3113">
        <ele>576.2</ele>
        <time>2024-03-24T18:20:22.165Z</time>
      </trkpt>
      <trkpt lat="45.77838" lon="6.31149">
        <ele>573.71</ele>
        <time>2024-03-24T18:20:24.773Z</time>
      </trkpt>
      <trkpt lat="45.77861" lon="6.31169">
        <ele>571.25</ele>
        <time>2024-03-24T18:20:27.389Z</time>
      </trkpt>
      <trkpt lat="45.7786" lon="6.3123">
        <ele>568.54</ele>
        <time>2024-03-24T18:20:30.020Z</time>
      </trkpt>
      <trkpt lat="45.77859" lon="6.31291">
        <ele>565.78</ele>
        <time>2024-03-24T18:20:32.665Z</time>
      </trkpt>
      <trkpt lat="45.77847" lon="6.31312">
        <ele>563.47</ele>
        <time>2024-03-24T18:20:35.317Z</time>
      </trkpt>
      <trkpt lat="45.77834" lon="6.31334">
        <ele>561.32</ele>
        <time>2024-03-24T18:20:37.975Z</time>
      </trkpt>
      <trkpt lat="45.77788" lon="6.31318">
        <ele>559.4</ele>
        <time>2024-03-24T18:20:40.649Z</time>
      </trkpt>
      <trkpt lat="45.77741" lon="6.31302">
        <ele>557.57</ele>
        <time>2024-03-24T18:20:43.339Z</time>
      </trkpt>
      <trkpt lat="45.77719" lon="6.31336">
        <ele>555.76</ele>
        <time>2024-03-24T18:20:46.040Z</time>
      </trkpt>
      <trkpt lat="45.77696" lon="6.31369">
        <ele>554.2</ele>
        <time>2024-03-24T18:20:48.752Z</time>
      </trkpt>
      <trkpt lat="45.77686" lon="6.31368">
        <ele>552.54</ele>
        <time>2024-03-24T18:20:51.467Z</time>
      </trkpt>
      <trkpt lat="45.77654" lon="6.31363">
        <ele>550.84</ele>
        <time>2024-03-24T18:20:54.193Z</time>
      </trkpt>
      <trkpt lat="45.77626" lon="6.31335">
        <ele>549.41</ele>
        <time>2024-03-24T18:20:56.930Z</time>
      </trkpt>
      <trkpt lat="45.77582" lon="6.31324">
        <ele>548.21</ele>
        <time>2024-03-24T18:20:59.682Z</time>
      </trkpt>
      <trkpt lat="45.7756" lon="6.31318">
        <ele>546.9</ele>
        <time>2024-03-24T18:21:02.442Z</time>
      </trkpt>
      <trkpt lat="45.77556" lon="6.31316">
        <ele>545.48</ele>
        <time>2024-03-24T18:21:05.203Z</time>
      </trkpt>
      <trkpt lat="45.77549" lon="6.31311">
        <ele>544.05</ele>
        <time>2024-03-24T18:21:07.967Z</time>
      </trkpt>
      <trkpt lat="45.77545" lon="6.313">
        <ele>542.58</ele>
        <time>2024-03-24T18:21:10.734Z</time>
      </trkpt>
      <trkpt lat="45.77525" lon="6.31255">
        <ele>541.03</ele>
        <time>2024-03-24T18:21:13.513Z</time>
      </trkpt>
      <trkpt lat="45.7748" lon="6.31202">
        <ele>539.59</ele>
        <time>2024-03-24T18:21:16.312Z</time>
      </trkpt>
      <trkpt lat="45.77418" lon="6.31172">
        <ele>537.99</ele>
        <time>2024-03-24T18:21:19.132Z</time>
      </trkpt>
      <trkpt lat="45.77359" lon="6.31118">
        <ele>536.86</ele>
        <time>2024-03-24T18:21:21.976Z</time>
      </trkpt>
      <trkpt lat="45.77309" lon="6.31076">
        <ele>535.6</ele>
        <time>2024-03-24T18:21:24.839Z</time>
      </trkpt>
      <trkpt lat="45.77278" lon="6.31053">
        <ele>534.45</ele>
        <time>2024-03-24T18:21:27.714Z</time>
      </trkpt>
      <trkpt lat="45.77255" lon="6.31032">
        <ele>533.41</ele>
        <time>2024-03-24T18:21:30.598Z</time>
      </trkpt>
      <trkpt lat="45.77244" lon="6.31028">
        <ele>532.39</ele>
        <time>2024-03-24T18:21:33.486Z</time>
      </trkpt>
      <trkpt lat="45.77232" lon="6.31025">
        <ele>531.41</ele>
        <time>2024-03-24T18:21:36.378Z</time>
      </trkpt>
      <trkpt lat="45.77198" lon="6.31022">
        <ele>530.45</ele>
        <time>2024-03-24T18:21:39.281Z</time>
      </trkpt>
      <trkpt lat="45.77179" lon="6.31003">
        <ele>529.69</ele>
        <time>2024-03-24T18:21:42.192Z</time>
      </trkpt>
      <trkpt lat="45.77168" lon="6.30988">
        <ele>528.96</ele>
        <time>2024-03-24T18:21:45.108Z</time>
      </trkpt>
      <trkpt lat="45.77139" lon="6.30977">
        <ele>528.21</ele>
        <time>2024-03-24T18:21:48.034Z</time>
      </trkpt>
      <trkpt lat="45.77111" lon="6.30963">
        <ele>527.47</ele>
        <time>2024-03-24T18:21:50.969Z</time>
      </trkpt>
      <trkpt lat="45.77096" lon="6.30958">
        <ele>526.77</ele>
        <time>2024-03-24T18:21:53.910Z</time>
      </trkpt>
      <trkpt lat="45.77058" lon="6.30957">
        <ele>526.09</ele>
        <time>2024-03-24T18:21:56.863Z</time>
      </trkpt>
      <trkpt lat="45.77012" lon="6.30933">
        <ele>525.58</ele>
        <time>2024-03-24T18:21:59.833Z</time>
      </trkpt>
      <trkpt lat="45.76963" lon="6.30919">
        <ele>525.4</ele>
        <time>2024-03-24T18:22:02.819Z</time>
      </trkpt>
      <trkpt lat="45.7695" lon="6.30912">
        <ele>524.95</ele>
        <time>2024-03-24T18:22:05.810Z</time>
      </trkpt>
      <trkpt lat="45.7693" lon="6.30889">
        <ele>524.33</ele>
        <time>2024-03-24T18:22:08.810Z</time>
      </trkpt>
      <trkpt lat="45.7692" lon="6.30882">
        <ele>523.55</ele>
        <time>2024-03-24T18:22:11.813Z</time>
      </trkpt>
      <trkpt lat="45.76908" lon="6.30888">
        <ele>522.67</ele>
        <time>2024-03-24T18:22:14.820Z</time>
      </trkpt>
      <trkpt lat="45.76885" lon="6.30911">
        <ele>521.79</ele>
        <time>2024-03-24T18:22:17.837Z</time>
      </trkpt>
      <trkpt lat="45.76839" lon="6.30954">
        <ele>521.07</ele>
        <time>2024-03-24T18:22:20.872Z</time>
      </trkpt>
      <trkpt lat="45.76817" lon="6.30972">
        <ele>520.42</ele>
        <time>2024-03-24T18:22:23.916Z</time>
      </trkpt>
      <trkpt lat="45.76815" lon="6.30969">
        <ele>519.92</ele>
        <time>2024-03-24T18:22:26.961Z</time>
      </trkpt>
      <trkpt lat="45.7681" lon="6.3096">
        <ele>519.43</ele>
        <time>2024-03-24T18:22:30.008Z</time>
      </trkpt>
      <trkpt lat="45.76775" lon="6.30928">
        <ele>518.87</ele>
        <time>2024-03-24T18:22:33.069Z</time>
      </trkpt>
      <trkpt lat="45.76724" lon="6.30885">
        <ele>518.42</ele>
        <time>2024-03-24T18:22:36.150Z</time>
      </trkpt>
      <trkpt lat="45.76704" lon="6.30865">
        <ele>518.14</ele>
        <time>2024-03-24T18:22:39.239Z</time>
      </trkpt>
      <trkpt lat="45.7669" lon="6.30854">
        <ele>517.77</ele>
        <time>2024-03-24T18:22:42.333Z</time>
      </trkpt>
      <trkpt lat="45.76678" lon="6.3085">
        <ele>517.46</ele>
        <time>2024-03-24T18:22:45.431Z</time>
      </trkpt>
      <trkpt lat="45.76676" lon="6.30849">
        <ele>517.23</ele>
        <time>2024-03-24T18:22:48.530Z</time>
      </trkpt>
      <trkpt lat="45.7661" lon="6.30888">
        <ele>516.98</ele>
        <time>2024-03-24T18:22:51.653Z</time>
      </trkpt>
      <trkpt lat="45.76584" lon="6.309">
        <ele>516.93</ele>
        <time>2024-03-24T18:22:54.785Z</time>
      </trkpt>
      <trkpt lat="45.76579" lon="6.30902">
        <ele>516.78</ele>
        <time>2024-03-24T18:22:57.919Z</time>
      </trkpt>
      <trkpt lat="45.76579" lon="6.30902">
        <ele>516.68</ele>
        <time>2024-03-24T18:23:01.053Z</time>
      </trkpt>
    </trkseg>
  </trk>
</gpx>